sensor_id;sensor_type;location;lat;lon;timestamp;temperature;humidity
12926;DHT22;6529;50.566;9.774;2023-08-24T00:02:01;17.50;1.00
12926;DHT22;6529;50.566;9.774;2023-08-24T00:04:28;17.40;1.00
12926;DHT22;6529;50.566;9.774;2023-08-24T00:06:54;17.50;1.00
12926;DHT22;6529;50.566;9.774;2023-08-24T00:09:20;17.50;99.90
12926;DHT22;6529;50.566;9.774;2023-08-24T00:11:46;17.60;99.90
12926;DHT22;6529;50.566;9.774;2023-08-24T00:14:11;17.50;99.90
12926;DHT22;6529;50.566;9.774;2023-08-24T00:16:37;17.40;99.90
12926;DHT22;6529;50.566;9.774;2023-08-24T00:19:03;17.30;33.20
12926;DHT22;6529;50.566;9.774;2023-08-24T00:21:28;17.30;1.00
12926;DHT22;6529;50.566;9.774;2023-08-24T00:23:54;17.10;1.00
12926;DHT22;6529;50.566;9.774;2023-08-24T00:26:20;17.00;1.00
12926;DHT22;6529;50.566;9.774;2023-08-24T00:28:46;17.10;1.00
12926;DHT22;6529;50.566;9.774;2023-08-24T00:31:11;17.30;1.00
12926;DHT22;6529;50.566;9.774;2023-08-24T00:33:37;17.30;99.90
12926;DHT22;6529;50.566;9.774;2023-08-24T00:36:05;17.20;1.00
12926;DHT22;6529;50.566;9.774;2023-08-24T00:38:30;17.30;1.00
12926;DHT22;6529;50.566;9.774;2023-08-24T00:40:57;17.10;99.90
12926;DHT22;6529;50.566;9.774;2023-08-24T00:43:25;17.10;1.00
12926;DHT22;6529;50.566;9.774;2023-08-24T00:45:51;17.10;1.00
12926;DHT22;6529;50.566;9.774;2023-08-24T00:48:18;17.00;99.90
12926;DHT22;6529;50.566;9.774;2023-08-24T00:50:44;17.00;1.00
12926;DHT22;6529;50.566;9.774;2023-08-24T00:53:10;16.80;1.00
12926;DHT22;6529;50.566;9.774;2023-08-24T00:55:36;16.80;1.00
12926;DHT22;6529;50.566;9.774;2023-08-24T00:58:02;16.90;1.00
12926;DHT22;6529;50.566;9.774;2023-08-24T01:00:28;16.90;1.00
12926;DHT22;6529;50.566;9.774;2023-08-24T01:02:54;16.90;1.00
12926;DHT22;6529;50.566;9.774;2023-08-24T01:05:20;17.00;1.00
12926;DHT22;6529;50.566;9.774;2023-08-24T01:07:46;17.10;1.00
12926;DHT22;6529;50.566;9.774;2023-08-24T01:10:12;17.00;1.00
12926;DHT22;6529;50.566;9.774;2023-08-24T01:13:07;17.00;1.00
12926;DHT22;6529;50.566;9.774;2023-08-24T01:15:40;16.90;99.90
12926;DHT22;6529;50.566;9.774;2023-08-24T01:18:13;16.70;1.00
12926;DHT22;6529;50.566;9.774;2023-08-24T01:20:40;16.60;1.00
12926;DHT22;6529;50.566;9.774;2023-08-24T01:26:17;16.60;1.00
12926;DHT22;6529;50.566;9.774;2023-08-24T01:28:44;16.60;1.00
12926;DHT22;6529;50.566;9.774;2023-08-24T01:31:10;16.80;1.00
12926;DHT22;6529;50.566;9.774;2023-08-24T01:33:36;16.90;1.00
12926;DHT22;6529;50.566;9.774;2023-08-24T01:36:02;16.90;1.00
12926;DHT22;6529;50.566;9.774;2023-08-24T01:38:28;16.90;1.00
12926;DHT22;6529;50.566;9.774;2023-08-24T01:43:36;16.70;1.00
12926;DHT22;6529;50.566;9.774;2023-08-24T01:46:06;16.60;1.00
12926;DHT22;6529;50.566;9.774;2023-08-24T01:48:33;16.50;1.00
12926;DHT22;6529;50.566;9.774;2023-08-24T01:50:59;16.50;1.00
12926;DHT22;6529;50.566;9.774;2023-08-24T01:53:27;16.40;1.00
12926;DHT22;6529;50.566;9.774;2023-08-24T01:55:53;16.30;1.00
12926;DHT22;6529;50.566;9.774;2023-08-24T01:58:19;16.20;1.00
12926;DHT22;6529;50.566;9.774;2023-08-24T02:00:45;16.10;1.00
12926;DHT22;6529;50.566;9.774;2023-08-24T02:03:11;16.10;99.90
12926;DHT22;6529;50.566;9.774;2023-08-24T02:05:37;16.10;95.70
12926;DHT22;6529;50.566;9.774;2023-08-24T02:08:02;16.00;70.10
12926;DHT22;6529;50.566;9.774;2023-08-24T02:10:28;16.00;99.90
12926;DHT22;6529;50.566;9.774;2023-08-24T02:12:54;16.00;79.70
12926;DHT22;6529;50.566;9.774;2023-08-24T02:15:19;16.00;77.60
12926;DHT22;6529;50.566;9.774;2023-08-24T02:17:45;16.00;99.90
12926;DHT22;6529;50.566;9.774;2023-08-24T02:20:10;15.90;99.90
12926;DHT22;6529;50.566;9.774;2023-08-24T02:22:37;15.90;99.90
12926;DHT22;6529;50.566;9.774;2023-08-24T02:25:03;15.90;99.90
12926;DHT22;6529;50.566;9.774;2023-08-24T02:27:30;16.00;99.90
12926;DHT22;6529;50.566;9.774;2023-08-24T02:29:56;16.00;99.90
12926;DHT22;6529;50.566;9.774;2023-08-24T02:32:22;16.10;99.90
12926;DHT22;6529;50.566;9.774;2023-08-24T02:34:47;16.10;91.90
12926;DHT22;6529;50.566;9.774;2023-08-24T02:37:13;16.00;99.90
12926;DHT22;6529;50.566;9.774;2023-08-24T02:39:39;16.00;99.90
12926;DHT22;6529;50.566;9.774;2023-08-24T02:42:05;16.00;99.90
12926;DHT22;6529;50.566;9.774;2023-08-24T02:44:30;16.00;99.90
12926;DHT22;6529;50.566;9.774;2023-08-24T02:46:56;16.30;70.20
12926;DHT22;6529;50.566;9.774;2023-08-24T02:49:22;16.40;1.00
12926;DHT22;6529;50.566;9.774;2023-08-24T02:51:48;16.20;1.00
12926;DHT22;6529;50.566;9.774;2023-08-24T02:54:14;16.20;49.10
12926;DHT22;6529;50.566;9.774;2023-08-24T02:56:39;16.00;90.10
12926;DHT22;6529;50.566;9.774;2023-08-24T02:59:06;16.00;99.30
12926;DHT22;6529;50.566;9.774;2023-08-24T03:01:31;15.80;99.90
12926;DHT22;6529;50.566;9.774;2023-08-24T03:03:57;15.80;36.40
12926;DHT22;6529;50.566;9.774;2023-08-24T03:06:23;15.70;99.90
12926;DHT22;6529;50.566;9.774;2023-08-24T03:08:49;15.90;99.90
12926;DHT22;6529;50.566;9.774;2023-08-24T03:11:15;16.00;95.40
12926;DHT22;6529;50.566;9.774;2023-08-24T03:13:41;16.00;38.70
12926;DHT22;6529;50.566;9.774;2023-08-24T03:16:07;16.00;99.90
12926;DHT22;6529;50.566;9.774;2023-08-24T03:18:33;15.90;17.70
12926;DHT22;6529;50.566;9.774;2023-08-24T03:20:59;15.90;99.90
12926;DHT22;6529;50.566;9.774;2023-08-24T03:23:25;15.90;99.90
12926;DHT22;6529;50.566;9.774;2023-08-24T03:25:50;15.80;99.90
12926;DHT22;6529;50.566;9.774;2023-08-24T03:28:16;15.80;99.90
12926;DHT22;6529;50.566;9.774;2023-08-24T03:30:50;15.70;99.90
12926;DHT22;6529;50.566;9.774;2023-08-24T03:33:16;15.60;99.90
12926;DHT22;6529;50.566;9.774;2023-08-24T03:35:42;15.50;99.90
12926;DHT22;6529;50.566;9.774;2023-08-24T03:38:08;15.50;99.90
12926;DHT22;6529;50.566;9.774;2023-08-24T03:40:33;15.50;99.90
12926;DHT22;6529;50.566;9.774;2023-08-24T03:43:02;15.50;99.90
12926;DHT22;6529;50.566;9.774;2023-08-24T03:45:28;15.50;99.90
12926;DHT22;6529;50.566;9.774;2023-08-24T03:47:54;15.50;99.90
12926;DHT22;6529;50.566;9.774;2023-08-24T03:50:20;15.60;99.90
12926;DHT22;6529;50.566;9.774;2023-08-24T03:52:47;15.50;99.90
12926;DHT22;6529;50.566;9.774;2023-08-24T03:55:13;15.60;99.90
12926;DHT22;6529;50.566;9.774;2023-08-24T03:57:38;15.70;99.90
12926;DHT22;6529;50.566;9.774;2023-08-24T04:00:05;15.60;99.90
12926;DHT22;6529;50.566;9.774;2023-08-24T04:02:36;15.50;99.90
12926;DHT22;6529;50.566;9.774;2023-08-24T04:05:03;15.50;99.90
12926;DHT22;6529;50.566;9.774;2023-08-24T04:07:29;15.60;99.90
12926;DHT22;6529;50.566;9.774;2023-08-24T04:09:54;16.10;99.90
12926;DHT22;6529;50.566;9.774;2023-08-24T04:12:20;17.30;1.00
12926;DHT22;6529;50.566;9.774;2023-08-24T04:14:45;18.60;91.00
12926;DHT22;6529;50.566;9.774;2023-08-24T04:17:11;19.30;99.90
12926;DHT22;6529;50.566;9.774;2023-08-24T04:19:40;19.30;1.00
12926;DHT22;6529;50.566;9.774;2023-08-24T04:22:05;19.00;1.00
12926;DHT22;6529;50.566;9.774;2023-08-24T04:24:31;18.90;1.00
12926;DHT22;6529;50.566;9.774;2023-08-24T04:26:56;18.60;7.40
12926;DHT22;6529;50.566;9.774;2023-08-24T04:29:22;18.60;99.90
12926;DHT22;6529;50.566;9.774;2023-08-24T04:31:47;19.10;1.00
12926;DHT22;6529;50.566;9.774;2023-08-24T04:34:13;19.10;1.00
12926;DHT22;6529;50.566;9.774;2023-08-24T04:36:39;19.00;99.90
12926;DHT22;6529;50.566;9.774;2023-08-24T04:39:04;18.30;99.90
12926;DHT22;6529;50.566;9.774;2023-08-24T04:41:30;17.60;1.00
12926;DHT22;6529;50.566;9.774;2023-08-24T04:43:55;17.20;99.90
12926;DHT22;6529;50.566;9.774;2023-08-24T04:46:21;18.10;99.90
12926;DHT22;6529;50.566;9.774;2023-08-24T04:48:46;18.80;99.90
12926;DHT22;6529;50.566;9.774;2023-08-24T04:51:12;19.30;1.00
12926;DHT22;6529;50.566;9.774;2023-08-24T04:53:37;19.10;1.00
12926;DHT22;6529;50.566;9.774;2023-08-24T04:56:03;19.20;1.00
12926;DHT22;6529;50.566;9.774;2023-08-24T04:58:29;19.10;1.00
12926;DHT22;6529;50.566;9.774;2023-08-24T05:00:54;19.80;1.00
12926;DHT22;6529;50.566;9.774;2023-08-24T05:03:21;19.90;1.00
12926;DHT22;6529;50.566;9.774;2023-08-24T05:05:47;19.80;1.00
12926;DHT22;6529;50.566;9.774;2023-08-24T05:08:12;19.20;1.00
12926;DHT22;6529;50.566;9.774;2023-08-24T05:10:38;19.20;1.00
12926;DHT22;6529;50.566;9.774;2023-08-24T05:13:04;19.10;1.00
12926;DHT22;6529;50.566;9.774;2023-08-24T05:15:30;19.40;1.00
12926;DHT22;6529;50.566;9.774;2023-08-24T05:17:55;19.30;24.50
12926;DHT22;6529;50.566;9.774;2023-08-24T05:20:28;19.00;99.90
12926;DHT22;6529;50.566;9.774;2023-08-24T05:22:54;18.90;1.00
12926;DHT22;6529;50.566;9.774;2023-08-24T05:25:23;18.70;99.90
12926;DHT22;6529;50.566;9.774;2023-08-24T05:27:49;18.30;99.90
12926;DHT22;6529;50.566;9.774;2023-08-24T05:30:14;18.00;1.00
12926;DHT22;6529;50.566;9.774;2023-08-24T05:32:40;18.80;1.00
12926;DHT22;6529;50.566;9.774;2023-08-24T05:35:06;19.70;99.90
12926;DHT22;6529;50.566;9.774;2023-08-24T05:37:32;19.90;99.90
12926;DHT22;6529;50.566;9.774;2023-08-24T05:39:59;20.10;1.00
12926;DHT22;6529;50.566;9.774;2023-08-24T05:42:25;20.20;99.90
12926;DHT22;6529;50.566;9.774;2023-08-24T05:44:50;20.10;1.00
12926;DHT22;6529;50.566;9.774;2023-08-24T05:47:16;19.90;99.90
12926;DHT22;6529;50.566;9.774;2023-08-24T05:49:42;19.70;99.90
12926;DHT22;6529;50.566;9.774;2023-08-24T05:52:07;19.60;99.90
12926;DHT22;6529;50.566;9.774;2023-08-24T05:54:33;19.40;1.00
12926;DHT22;6529;50.566;9.774;2023-08-24T05:56:59;19.70;99.90
12926;DHT22;6529;50.566;9.774;2023-08-24T05:59:26;19.90;1.00
12926;DHT22;6529;50.566;9.774;2023-08-24T06:01:52;20.00;1.00
12926;DHT22;6529;50.566;9.774;2023-08-24T06:04:18;19.70;71.60
12926;DHT22;6529;50.566;9.774;2023-08-24T06:06:43;19.20;1.00
12926;DHT22;6529;50.566;9.774;2023-08-24T06:09:09;18.70;99.90
12926;DHT22;6529;50.566;9.774;2023-08-24T06:11:35;18.40;1.00
12926;DHT22;6529;50.566;9.774;2023-08-24T06:14:01;19.10;1.00
12926;DHT22;6529;50.566;9.774;2023-08-24T06:16:27;19.70;1.00
12926;DHT22;6529;50.566;9.774;2023-08-24T06:18:53;20.20;99.90
12926;DHT22;6529;50.566;9.774;2023-08-24T06:21:19;19.90;99.90
12926;DHT22;6529;50.566;9.774;2023-08-24T06:23:44;19.60;50.10
12926;DHT22;6529;50.566;9.774;2023-08-24T06:26:10;20.20;99.90
12926;DHT22;6529;50.566;9.774;2023-08-24T06:28:36;20.00;1.00
12926;DHT22;6529;50.566;9.774;2023-08-24T06:31:01;19.70;99.90
12926;DHT22;6529;50.566;9.774;2023-08-24T06:33:28;19.90;99.90
12926;DHT22;6529;50.566;9.774;2023-08-24T06:35:59;19.60;1.00
12926;DHT22;6529;50.566;9.774;2023-08-24T06:38:25;19.60;1.00
12926;DHT22;6529;50.566;9.774;2023-08-24T06:40:51;19.30;1.00
12926;DHT22;6529;50.566;9.774;2023-08-24T06:43:17;19.30;1.00
12926;DHT22;6529;50.566;9.774;2023-08-24T06:45:48;19.30;1.00
12926;DHT22;6529;50.566;9.774;2023-08-24T06:48:13;19.10;99.90
12926;DHT22;6529;50.566;9.774;2023-08-24T06:50:39;18.90;99.90
12926;DHT22;6529;50.566;9.774;2023-08-24T06:53:05;19.10;51.10
12926;DHT22;6529;50.566;9.774;2023-08-24T06:55:30;19.00;99.90
12926;DHT22;6529;50.566;9.774;2023-08-24T06:57:56;19.00;1.00
12926;DHT22;6529;50.566;9.774;2023-08-24T07:00:22;18.90;1.00
12926;DHT22;6529;50.566;9.774;2023-08-24T07:02:49;18.90;1.00
12926;DHT22;6529;50.566;9.774;2023-08-24T07:05:15;19.00;1.00
12926;DHT22;6529;50.566;9.774;2023-08-24T07:07:45;19.10;1.00
12926;DHT22;6529;50.566;9.774;2023-08-24T07:10:11;19.30;1.00
12926;DHT22;6529;50.566;9.774;2023-08-24T07:12:36;19.60;1.00
12926;DHT22;6529;50.566;9.774;2023-08-24T07:15:04;20.10;1.00
12926;DHT22;6529;50.566;9.774;2023-08-24T07:17:30;20.20;1.00
12926;DHT22;6529;50.566;9.774;2023-08-24T07:19:55;20.30;1.00
12926;DHT22;6529;50.566;9.774;2023-08-24T07:22:21;20.40;99.90
12926;DHT22;6529;50.566;9.774;2023-08-24T07:24:46;20.10;1.00
12926;DHT22;6529;50.566;9.774;2023-08-24T07:27:17;20.00;99.90
12926;DHT22;6529;50.566;9.774;2023-08-24T07:29:43;20.00;1.00
12926;DHT22;6529;50.566;9.774;2023-08-24T07:32:09;20.00;99.90
12926;DHT22;6529;50.566;9.774;2023-08-24T07:34:34;20.20;1.00
12926;DHT22;6529;50.566;9.774;2023-08-24T07:37:00;20.30;1.00
12926;DHT22;6529;50.566;9.774;2023-08-24T07:39:25;20.10;1.00
12926;DHT22;6529;50.566;9.774;2023-08-24T07:41:51;20.30;99.90
12926;DHT22;6529;50.566;9.774;2023-08-24T07:44:17;20.80;1.00
12926;DHT22;6529;50.566;9.774;2023-08-24T07:46:42;20.70;1.00
12926;DHT22;6529;50.566;9.774;2023-08-24T07:49:08;20.60;1.00
12926;DHT22;6529;50.566;9.774;2023-08-24T07:51:34;20.40;1.00
12926;DHT22;6529;50.566;9.774;2023-08-24T07:54:00;20.30;1.00
12926;DHT22;6529;50.566;9.774;2023-08-24T07:56:25;20.60;1.00
12926;DHT22;6529;50.566;9.774;2023-08-24T07:58:51;20.90;13.10
12926;DHT22;6529;50.566;9.774;2023-08-24T08:01:16;20.90;1.00
12926;DHT22;6529;50.566;9.774;2023-08-24T08:03:42;21.00;1.00
12926;DHT22;6529;50.566;9.774;2023-08-24T08:06:08;20.90;1.00
12926;DHT22;6529;50.566;9.774;2023-08-24T08:08:33;20.80;1.00
12926;DHT22;6529;50.566;9.774;2023-08-24T08:11:01;20.90;99.90
12926;DHT22;6529;50.566;9.774;2023-08-24T08:13:27;20.90;1.00
12926;DHT22;6529;50.566;9.774;2023-08-24T08:15:53;21.10;1.00
12926;DHT22;6529;50.566;9.774;2023-08-24T08:18:19;21.20;91.70
12926;DHT22;6529;50.566;9.774;2023-08-24T08:20:45;21.20;34.50
12926;DHT22;6529;50.566;9.774;2023-08-24T08:23:10;21.50;99.90
12926;DHT22;6529;50.566;9.774;2023-08-24T08:25:36;21.60;1.00
12926;DHT22;6529;50.566;9.774;2023-08-24T08:28:01;21.70;1.00
12926;DHT22;6529;50.566;9.774;2023-08-24T08:30:27;21.70;1.00
12926;DHT22;6529;50.566;9.774;2023-08-24T08:32:52;21.80;1.00
12926;DHT22;6529;50.566;9.774;2023-08-24T08:35:21;21.70;1.00
12926;DHT22;6529;50.566;9.774;2023-08-24T08:37:47;21.70;1.00
12926;DHT22;6529;50.566;9.774;2023-08-24T08:40:15;21.50;1.00
12926;DHT22;6529;50.566;9.774;2023-08-24T08:42:40;21.60;1.00
12926;DHT22;6529;50.566;9.774;2023-08-24T08:45:09;21.70;1.00
12926;DHT22;6529;50.566;9.774;2023-08-24T08:47:35;21.90;1.00
12926;DHT22;6529;50.566;9.774;2023-08-24T08:50:02;21.90;1.00
12926;DHT22;6529;50.566;9.774;2023-08-24T08:52:33;21.90;1.00
12926;DHT22;6529;50.566;9.774;2023-08-24T08:55:00;21.80;1.00
12926;DHT22;6529;50.566;9.774;2023-08-24T08:57:26;21.80;1.00
12926;DHT22;6529;50.566;9.774;2023-08-24T08:59:52;21.90;98.20
12926;DHT22;6529;50.566;9.774;2023-08-24T09:02:20;22.10;99.90
12926;DHT22;6529;50.566;9.774;2023-08-24T09:04:48;22.20;1.00
12926;DHT22;6529;50.566;9.774;2023-08-24T09:07:16;22.30;99.90
12926;DHT22;6529;50.566;9.774;2023-08-24T09:09:42;22.40;1.00
12926;DHT22;6529;50.566;9.774;2023-08-24T09:12:08;22.50;1.00
12926;DHT22;6529;50.566;9.774;2023-08-24T09:14:34;22.40;99.90
12926;DHT22;6529;50.566;9.774;2023-08-24T09:17:00;22.30;94.00
12926;DHT22;6529;50.566;9.774;2023-08-24T09:19:30;22.30;99.90
12926;DHT22;6529;50.566;9.774;2023-08-24T09:22:01;22.70;1.00
12926;DHT22;6529;50.566;9.774;2023-08-24T09:24:34;23.10;99.90
12926;DHT22;6529;50.566;9.774;2023-08-24T09:27:14;23.40;1.00
12926;DHT22;6529;50.566;9.774;2023-08-24T09:29:40;23.60;1.00
12926;DHT22;6529;50.566;9.774;2023-08-24T09:32:08;23.90;99.90
12926;DHT22;6529;50.566;9.774;2023-08-24T09:34:36;24.00;99.90
12926;DHT22;6529;50.566;9.774;2023-08-24T09:37:02;24.30;33.70
12926;DHT22;6529;50.566;9.774;2023-08-24T09:39:29;24.50;14.70
12926;DHT22;6529;50.566;9.774;2023-08-24T09:42:00;24.50;1.00
12926;DHT22;6529;50.566;9.774;2023-08-24T09:44:28;24.70;1.00
12926;DHT22;6529;50.566;9.774;2023-08-24T09:46:54;24.90;99.90
12926;DHT22;6529;50.566;9.774;2023-08-24T09:49:19;25.20;1.00
12926;DHT22;6529;50.566;9.774;2023-08-24T09:51:45;25.50;1.00
12926;DHT22;6529;50.566;9.774;2023-08-24T09:54:11;25.70;1.00
12926;DHT22;6529;50.566;9.774;2023-08-24T09:56:40;25.90;99.90
12926;DHT22;6529;50.566;9.774;2023-08-24T09:59:17;26.10;1.00
12926;DHT22;6529;50.566;9.774;2023-08-24T10:01:45;26.30;1.00
12926;DHT22;6529;50.566;9.774;2023-08-24T10:04:14;26.50;99.90
12926;DHT22;6529;50.566;9.774;2023-08-24T10:06:40;26.60;99.90
12926;DHT22;6529;50.566;9.774;2023-08-24T10:09:08;26.60;1.00
12926;DHT22;6529;50.566;9.774;2023-08-24T10:11:40;26.70;1.00
12926;DHT22;6529;50.566;9.774;2023-08-24T10:14:17;26.90;1.00
12926;DHT22;6529;50.566;9.774;2023-08-24T10:16:45;26.90;99.90
12926;DHT22;6529;50.566;9.774;2023-08-24T10:19:13;27.10;1.00
12926;DHT22;6529;50.566;9.774;2023-08-24T10:21:39;27.30;99.90
12926;DHT22;6529;50.566;9.774;2023-08-24T10:24:06;27.30;99.90
12926;DHT22;6529;50.566;9.774;2023-08-24T10:26:33;27.00;33.20
12926;DHT22;6529;50.566;9.774;2023-08-24T10:29:00;27.20;99.90
12926;DHT22;6529;50.566;9.774;2023-08-24T10:31:26;27.40;99.90
12926;DHT22;6529;50.566;9.774;2023-08-24T10:33:52;27.60;99.90
12926;DHT22;6529;50.566;9.774;2023-08-24T10:36:21;27.70;99.90
12926;DHT22;6529;50.566;9.774;2023-08-24T10:38:48;27.50;1.00
12926;DHT22;6529;50.566;9.774;2023-08-24T10:41:13;27.30;1.00
12926;DHT22;6529;50.566;9.774;2023-08-24T10:43:49;27.40;1.00
12926;DHT22;6529;50.566;9.774;2023-08-24T10:46:15;27.50;1.00
12926;DHT22;6529;50.566;9.774;2023-08-24T10:56:15;28.40;99.90
12926;DHT22;6529;50.566;9.774;2023-08-24T10:58:42;28.50;99.90
12926;DHT22;6529;50.566;9.774;2023-08-24T11:01:17;28.20;99.90
12926;DHT22;6529;50.566;9.774;2023-08-24T11:03:54;28.50;99.90
12926;DHT22;6529;50.566;9.774;2023-08-24T11:06:26;28.40;99.90
12926;DHT22;6529;50.566;9.774;2023-08-24T11:09:09;28.50;99.90
12926;DHT22;6529;50.566;9.774;2023-08-24T11:11:39;28.20;99.90
12926;DHT22;6529;50.566;9.774;2023-08-24T11:14:16;28.20;99.90
12926;DHT22;6529;50.566;9.774;2023-08-24T11:16:44;28.60;99.90
12926;DHT22;6529;50.566;9.774;2023-08-24T11:19:14;29.10;99.90
12926;DHT22;6529;50.566;9.774;2023-08-24T11:21:41;28.70;99.90
12926;DHT22;6529;50.566;9.774;2023-08-24T11:24:07;28.90;99.90
12926;DHT22;6529;50.566;9.774;2023-08-24T11:26:34;29.10;99.90
12926;DHT22;6529;50.566;9.774;2023-08-24T11:29:04;29.20;99.90
12926;DHT22;6529;50.566;9.774;2023-08-24T11:31:29;29.10;99.90
12926;DHT22;6529;50.566;9.774;2023-08-24T11:33:55;29.20;99.90
12926;DHT22;6529;50.566;9.774;2023-08-24T11:36:21;29.10;99.90
12926;DHT22;6529;50.566;9.774;2023-08-24T11:38:52;29.10;99.90
12926;DHT22;6529;50.566;9.774;2023-08-24T11:41:18;29.10;99.90
12926;DHT22;6529;50.566;9.774;2023-08-24T11:43:46;29.10;99.90
12926;DHT22;6529;50.566;9.774;2023-08-24T11:46:15;29.30;99.90
12926;DHT22;6529;50.566;9.774;2023-08-24T11:48:41;29.30;99.90
12926;DHT22;6529;50.566;9.774;2023-08-24T11:51:11;29.40;99.90
12926;DHT22;6529;50.566;9.774;2023-08-24T11:53:41;29.30;99.90
12926;DHT22;6529;50.566;9.774;2023-08-24T11:56:14;29.50;99.90
12926;DHT22;6529;50.566;9.774;2023-08-24T11:58:43;29.80;99.90
12926;DHT22;6529;50.566;9.774;2023-08-24T12:01:10;29.70;99.90
12926;DHT22;6529;50.566;9.774;2023-08-24T12:03:40;29.70;99.90
12926;DHT22;6529;50.566;9.774;2023-08-24T12:06:13;29.70;99.90
12926;DHT22;6529;50.566;9.774;2023-08-24T12:08:40;30.00;99.90
12926;DHT22;6529;50.566;9.774;2023-08-24T12:11:19;30.20;99.90
12926;DHT22;6529;50.566;9.774;2023-08-24T12:13:49;30.30;99.90
12926;DHT22;6529;50.566;9.774;2023-08-24T12:16:16;30.50;99.90
12926;DHT22;6529;50.566;9.774;2023-08-24T12:18:56;30.50;99.90
12926;DHT22;6529;50.566;9.774;2023-08-24T12:21:23;30.00;99.90
12926;DHT22;6529;50.566;9.774;2023-08-24T12:24:00;29.70;99.90
12926;DHT22;6529;50.566;9.774;2023-08-24T12:26:28;29.60;99.90
12926;DHT22;6529;50.566;9.774;2023-08-24T12:29:00;29.80;99.90
12926;DHT22;6529;50.566;9.774;2023-08-24T12:31:27;30.10;99.90
12926;DHT22;6529;50.566;9.774;2023-08-24T12:34:00;30.00;99.90
12926;DHT22;6529;50.566;9.774;2023-08-24T12:36:27;29.80;99.90
12926;DHT22;6529;50.566;9.774;2023-08-24T12:38:53;30.10;99.90
12926;DHT22;6529;50.566;9.774;2023-08-24T12:41:18;30.00;99.90
12926;DHT22;6529;50.566;9.774;2023-08-24T12:43:44;29.80;99.90
12926;DHT22;6529;50.566;9.774;2023-08-24T12:46:09;29.60;99.90
12926;DHT22;6529;50.566;9.774;2023-08-24T12:48:35;29.70;99.90
12926;DHT22;6529;50.566;9.774;2023-08-24T12:51:00;29.80;99.90
12926;DHT22;6529;50.566;9.774;2023-08-24T12:53:26;30.10;99.90
12926;DHT22;6529;50.566;9.774;2023-08-24T12:55:51;30.50;99.90
12926;DHT22;6529;50.566;9.774;2023-08-24T12:58:17;30.50;99.90
12926;DHT22;6529;50.566;9.774;2023-08-24T13:00:44;30.60;99.90
12926;DHT22;6529;50.566;9.774;2023-08-24T13:03:09;30.70;99.90
12926;DHT22;6529;50.566;9.774;2023-08-24T13:05:36;30.80;99.90
12926;DHT22;6529;50.566;9.774;2023-08-24T13:08:02;30.90;99.90
12926;DHT22;6529;50.566;9.774;2023-08-24T13:10:28;31.00;99.90
12926;DHT22;6529;50.566;9.774;2023-08-24T13:12:53;30.90;99.90
12926;DHT22;6529;50.566;9.774;2023-08-24T13:15:19;30.60;99.90
12926;DHT22;6529;50.566;9.774;2023-08-24T13:17:46;30.70;99.90
12926;DHT22;6529;50.566;9.774;2023-08-24T13:20:11;30.40;99.90
12926;DHT22;6529;50.566;9.774;2023-08-24T13:22:37;30.50;99.90
12926;DHT22;6529;50.566;9.774;2023-08-24T13:25:03;30.80;99.90
12926;DHT22;6529;50.566;9.774;2023-08-24T13:27:28;31.20;99.90
12926;DHT22;6529;50.566;9.774;2023-08-24T13:29:55;31.50;99.90
12926;DHT22;6529;50.566;9.774;2023-08-24T13:32:22;31.60;99.90
12926;DHT22;6529;50.566;9.774;2023-08-24T13:34:47;31.80;99.90
12926;DHT22;6529;50.566;9.774;2023-08-24T13:37:13;32.10;97.70
12926;DHT22;6529;50.566;9.774;2023-08-24T13:39:38;32.40;99.90
12926;DHT22;6529;50.566;9.774;2023-08-24T13:42:04;32.30;93.40
12926;DHT22;6529;50.566;9.774;2023-08-24T13:44:30;32.50;82.40
12926;DHT22;6529;50.566;9.774;2023-08-24T13:46:55;32.40;87.60
12926;DHT22;6529;50.566;9.774;2023-08-24T13:49:21;32.40;92.60
12926;DHT22;6529;50.566;9.774;2023-08-24T13:51:46;32.30;87.50
12926;DHT22;6529;50.566;9.774;2023-08-24T13:54:16;31.90;72.80
12926;DHT22;6529;50.566;9.774;2023-08-24T13:56:43;31.90;76.90
12926;DHT22;6529;50.566;9.774;2023-08-24T13:59:09;31.90;81.70
12926;DHT22;6529;50.566;9.774;2023-08-24T14:01:34;31.90;91.90
12926;DHT22;6529;50.566;9.774;2023-08-24T14:04:00;31.50;70.60
12926;DHT22;6529;50.566;9.774;2023-08-24T14:06:31;31.10;93.70
12926;DHT22;6529;50.566;9.774;2023-08-24T14:09:00;30.70;99.90
12926;DHT22;6529;50.566;9.774;2023-08-24T14:11:27;30.30;99.30
12926;DHT22;6529;50.566;9.774;2023-08-24T14:13:53;29.90;99.90
12926;DHT22;6529;50.566;9.774;2023-08-24T14:16:18;29.80;99.90
12926;DHT22;6529;50.566;9.774;2023-08-24T14:18:45;29.80;99.90
12926;DHT22;6529;50.566;9.774;2023-08-24T14:21:11;29.70;99.90
12926;DHT22;6529;50.566;9.774;2023-08-24T14:23:37;29.70;99.90
12926;DHT22;6529;50.566;9.774;2023-08-24T14:26:03;29.80;99.90
12926;DHT22;6529;50.566;9.774;2023-08-24T14:28:54;30.00;99.90
12926;DHT22;6529;50.566;9.774;2023-08-24T14:31:24;30.10;99.90
12926;DHT22;6529;50.566;9.774;2023-08-24T14:33:50;30.10;99.90
12926;DHT22;6529;50.566;9.774;2023-08-24T14:36:17;29.90;99.90
12926;DHT22;6529;50.566;9.774;2023-08-24T14:38:43;29.90;99.90
12926;DHT22;6529;50.566;9.774;2023-08-24T14:41:10;29.90;99.90
12926;DHT22;6529;50.566;9.774;2023-08-24T14:43:36;29.80;99.90
12926;DHT22;6529;50.566;9.774;2023-08-24T14:46:02;29.70;99.90
12926;DHT22;6529;50.566;9.774;2023-08-24T14:48:28;29.60;99.90
12926;DHT22;6529;50.566;9.774;2023-08-24T14:50:54;29.40;99.90
12926;DHT22;6529;50.566;9.774;2023-08-24T14:53:19;29.40;99.90
12926;DHT22;6529;50.566;9.774;2023-08-24T14:55:45;29.40;99.90
12926;DHT22;6529;50.566;9.774;2023-08-24T14:58:10;29.40;99.90
12926;DHT22;6529;50.566;9.774;2023-08-24T15:00:36;29.30;99.90
12926;DHT22;6529;50.566;9.774;2023-08-24T15:03:03;29.20;99.90
12926;DHT22;6529;50.566;9.774;2023-08-24T15:05:28;29.20;99.90
12926;DHT22;6529;50.566;9.774;2023-08-24T15:07:54;29.00;99.90
12926;DHT22;6529;50.566;9.774;2023-08-24T15:10:19;29.00;99.90
12926;DHT22;6529;50.566;9.774;2023-08-24T15:12:45;29.00;99.90
12926;DHT22;6529;50.566;9.774;2023-08-24T15:15:12;28.90;99.90
12926;DHT22;6529;50.566;9.774;2023-08-24T15:17:42;28.70;99.90
12926;DHT22;6529;50.566;9.774;2023-08-24T15:20:08;28.70;53.60
12926;DHT22;6529;50.566;9.774;2023-08-24T15:22:35;28.50;1.00
12926;DHT22;6529;50.566;9.774;2023-08-24T15:25:00;28.40;99.90
12926;DHT22;6529;50.566;9.774;2023-08-24T15:27:27;28.30;99.90
12926;DHT22;6529;50.566;9.774;2023-08-24T15:29:53;28.20;1.00
12926;DHT22;6529;50.566;9.774;2023-08-24T15:32:19;28.10;99.90
12926;DHT22;6529;50.566;9.774;2023-08-24T15:34:44;28.10;99.90
12926;DHT22;6529;50.566;9.774;2023-08-24T15:37:10;28.10;99.90
12926;DHT22;6529;50.566;9.774;2023-08-24T15:39:37;28.10;99.90
12926;DHT22;6529;50.566;9.774;2023-08-24T15:42:06;28.00;99.90
12926;DHT22;6529;50.566;9.774;2023-08-24T15:44:32;28.00;1.00
12926;DHT22;6529;50.566;9.774;2023-08-24T15:46:59;27.90;99.90
12926;DHT22;6529;50.566;9.774;2023-08-24T15:49:25;27.90;99.90
12926;DHT22;6529;50.566;9.774;2023-08-24T15:51:51;27.70;99.90
12926;DHT22;6529;50.566;9.774;2023-08-24T15:54:17;27.70;99.90
12926;DHT22;6529;50.566;9.774;2023-08-24T15:56:43;27.60;99.90
12926;DHT22;6529;50.566;9.774;2023-08-24T15:59:16;27.50;99.90
12926;DHT22;6529;50.566;9.774;2023-08-24T16:01:41;27.50;99.90
12926;DHT22;6529;50.566;9.774;2023-08-24T16:04:07;27.30;99.90